Latest Weather Observations for Norfolk Island

IDN60801

Issued at 11:32 pm EDT Monday 16 January 2017 (issued every 30 minutes, with the page automatically refreshed every 10 minutes)

About weather observations | Map of weather stations | Latest weather observations for NSW | Other Formats
Station Details ID: 200288 Name: NORFOLK ISLAND AERO Lat: -29.04 Lon: 167.94 Height: 111.73 m
Data from the previous 72 hours. | See also: Recent months at Norfolk Island
Date/Time
EDT
Temp
°C
App
Temp
°C
Dew
Point
°C
Rel
Hum
%
Delta-T
°C
Wind Press
QNH
hPa
Press
MSL
hPa
Rain since
9am
mm
Dir  Spd
km/h
Gust
km/h
Spd
kts
Gust
kts
16/11:30pm 22.5 24.4 21.3 93 0.8 SSE 13 17 7 9 1016.7 1016.2 0.0
16/11:00pm 22.6 24.6 21.5 93 0.7 SSE 13 15 7 8 1016.9 1016.4 0.0
16/10:30pm 22.5 25.2 21.4 93 0.7 SSE 9 11 5 6 1017.0 1016.5 0.0
16/10:14pm 22.4 25.5 21.5 95 0.6 SE 7 11 4 6 1017.1 1016.6 0.0
16/10:00pm 22.2 26.6 21.3 95 0.6 CALM 0 0 0 0 1017.2 1016.7 0.0
16/09:30pm 22.3 25.5 21.2 93 0.7 ESE 6 7 3 4 1017.3 1016.8 0.0
16/09:04pm 22.3 25.3 21.2 93 0.7 ESE 7 9 4 5 1017.2 1016.7 0.0
16/09:00pm 22.3 25.3 21.2 93 0.7 ESE 7 9 4 5 1017.1 1016.6 0.0
16/08:42pm 22.5 25.5 21.3 93 0.8 SE 7 11 4 6 1017.1 1016.6 0.0
16/08:30pm 22.4 25.0 21.2 93 0.8 SE 9 13 5 7 1017.1 1016.6 0.0
16/08:15pm 22.3 24.8 21.1 93 0.8 SE 9 11 5 6 1017.0 1016.5 0.0
16/08:00pm 22.4 24.9 21.0 92 0.9 SSE 9 11 5 6 1017.0 1016.5 0.0
16/07:30pm 22.5 25.3 20.8 90 1.1 SE 7 11 4 6 1016.8 1016.3 0.0
16/07:26pm 22.5 25.4 21.0 91 1.0 SE 7 9 4 5 1016.7 1016.2 0.0
16/07:00pm 22.6 25.0 20.8 89 1.2 SE 9 11 5 6 1016.6 1016.1 0.0
16/06:46pm 22.8 25.5 20.7 88 1.4 ESE 7 9 4 5 1016.4 1015.9 0.0
16/06:30pm 23.1 25.5 20.8 87 1.5 ESE 9 13 5 7 1016.3 1015.8 0.0
16/06:13pm 23.2 25.4 21.1 88 1.4 ESE 11 17 6 9 1016.1 1015.6 0.0
16/06:06pm 23.2 25.0 21.1 88 1.4 SE 13 17 7 9 1016.1 1015.6 0.0
16/06:00pm 23.1 24.5 21.0 88 1.4 SE 15 20 8 11 1016.0 1015.5 0.0
16/05:30pm 24.6 26.1 20.5 78 2.7 SE 13 19 7 10 1015.6 1015.1 0.0
16/05:27pm 24.3 25.7 20.3 78 2.6 SE 13 19 7 10 1015.5 1015.0 0.0
16/05:00pm 25.2 25.9 19.6 71 3.6 SSE 15 20 8 11 1015.3 1014.8 0.0
16/04:30pm 25.6 26.3 19.7 70 3.8 SE 15 22 8 12 1015.1 1014.6 0.0
16/04:23pm 25.7 26.9 19.9 70 3.8 SSE 13 17 7 9 1015.2 1014.7 0.0
16/04:05pm 24.3 25.7 20.3 78 2.6 S 13 17 7 9 1015.3 1014.8 0.0
16/04:00pm 24.2 25.6 20.4 79 2.5 S 13 17 7 9 1015.3 1014.8 0.0
16/03:30pm 24.1 25.3 19.9 77 2.7 SSW 13 17 7 9 1015.4 1014.9 0.0
16/03:00pm 24.5 25.1 19.5 73 3.2 SSE 15 19 8 10 1015.5 1015.0 0.0
16/02:30pm 25.5 26.9 19.5 69 3.9 SE 11 17 6 9 1015.6 1015.1 0.0
16/02:00pm 25.2 26.0 19.0 68 4.0 SSE 13 24 7 13 1015.6 1015.1 0.0
16/01:30pm 25.0 24.5 18.7 68 4.0 SSE 19 28 10 15 1015.9 1015.4 0.0
16/01:00pm 26.3 25.9 18.8 63 4.8 SSE 19 30 10 16 1015.9 1015.4 0.0
16/12:30pm 26.1 25.9 18.4 62 4.9 S 17 24 9 13 1015.8 1015.3 0.0
16/12:00pm 26.1 26.6 18.4 62 4.9 SSE 13 24 7 13 1015.9 1015.4 0.0
16/11:30am 26.0 26.5 18.3 62 4.9 SE 13 19 7 10 1015.9 1015.4 0.0
16/11:00am 25.5 25.7 17.7 62 4.9 S 13 19 7 10 1016.1 1015.6 0.0
16/10:30am 25.5 25.3 17.5 61 5.0 S 15 19 8 10 1015.9 1015.4 0.0
16/10:00am 25.4 25.3 16.9 59 5.3 SSW 13 17 7 9 1015.9 1015.4 0.0
16/09:30am 25.0 25.0 17.3 62 4.8 SSW 13 17 7 9 1015.9 1015.4 0.0
16/09:00am 23.9 25.3 17.8 68 3.8 WSW 7 13 4 7 1015.9 1015.4 0.0
16/08:30am 25.5 27.2 18.1 63 4.7 SW 6 11 3 6 1015.9 1015.4 0.0
16/08:00am 24.5 26.4 17.6 65 4.3 S 4 9 2 5 1015.9 1015.4 0.0
16/07:30am 24.2 25.6 17.7 67 4.1 S 7 9 4 5 1015.9 1015.4 0.0
16/07:00am 24.0 26.6 18.5 71 3.5 ENE 2 7 1 4 1015.7 1015.2 0.0
16/06:30am 23.3 26.4 18.6 75 3.0 CALM 0 0 0 0 1015.6 1015.1 0.0
16/06:00am 21.5 24.8 19.1 86 1.5 CALM 0 0 0 0 1015.1 1014.6 0.0
16/05:30am 19.8 21.6 18.4 92 0.9 NE 6 7 3 4 1014.9 1014.4 0.0
16/05:00am 19.7 22.6 18.3 92 0.9 CALM 0 0 0 0 1014.6 1014.1 0.0
16/04:30am 19.4 21.7 17.8 90 1.0 NNE 2 7 1 4 1014.3 1013.8 0.0
16/04:00am 20.0 21.1 18.1 89 1.2 NNE 9 11 5 6 1014.0 1013.5 0.0
16/03:30am 20.0 22.1 18.2 89 1.1 ENE 4 9 2 5 1014.0 1013.5 0.0
16/03:00am 19.8 22.8 18.4 92 0.9 CALM 0 0 0 0 1014.3 1013.8 0.0
16/02:30am 19.8 22.7 18.2 90 1.0 CALM 0 2 0 1 1014.5 1014.0 0.0
16/02:00am 20.2 22.4 18.4 89 1.1 NE 4 9 2 5 1014.4 1013.9 0.0
16/01:30am 20.0 22.9 18.1 89 1.2 CALM 0 0 0 0 1014.6 1014.1 0.0
16/01:00am 20.0 22.6 18.4 90 1.0 NE 2 7 1 4 1014.7 1014.2 0.0
16/12:30am 20.0 22.9 18.2 89 1.1 CALM 0 0 0 0 1015.0 1014.5 0.0
16/12:00am 20.7 23.7 18.5 87 1.4 CALM 0 0 0 0 1015.1 1014.6 0.0
 
Date/Time
EDT
Temp
°C
App
Temp
°C
Dew
Point
°C
Rel
Hum
%
Delta-T
°C
Wind Press
QNH
hPa
Press
MSL
hPa
Rain since
9am
mm
Dir  Spd
km/h
Gust
km/h
Spd
kts
Gust
kts
15/11:30pm 20.5 23.4 18.3 87 1.4 CALM 0 0 0 0 1015.3 1014.8 0.0
15/11:00pm 20.2 23.1 18.1 88 1.3 CALM 0 6 0 3 1015.4 1014.9 0.0
15/10:30pm 20.6 22.2 18.2 86 1.5 ENE 7 9 4 5 1015.6 1015.1 0.0
15/10:00pm 20.7 22.3 18.3 86 1.5 ENE 7 9 4 5 1015.5 1015.0 0.0
15/09:30pm 21.0 22.4 17.9 82 1.9 ENE 7 9 4 5 1015.4 1014.9 0.0
15/09:00pm 21.3 22.8 18.1 82 2.0 ENE 7 7 4 4 1015.5 1015.0 0.0
15/08:30pm 21.6 23.1 18.1 80 2.2 ENE 7 9 4 5 1015.3 1014.8 0.0
15/08:00pm 21.8 23.4 18.3 80 2.2 ENE 7 9 4 5 1014.9 1014.4 0.0
15/07:30pm 22.1 24.2 18.1 78 2.5 E 4 9 2 5 1014.7 1014.2 0.0
15/07:00pm 22.5 24.2 18.4 77 2.6 ESE 7 9 4 5 1014.7 1014.2 0.0
15/06:30pm 23.3 25.0 18.6 75 3.0 E 7 13 4 7 1014.4 1013.9 0.0
15/06:00pm 23.9 24.9 18.7 72 3.3 SSE 11 15 6 8 1014.2 1013.7 0.0
15/05:30pm 24.8 25.5 18.0 66 4.3 SSE 11 13 6 7 1014.0 1013.5 0.0
15/05:00pm 24.9 25.5 17.7 64 4.5 SSW 11 15 6 8 1014.0 1013.5 0.0
15/04:30pm 25.7 26.0 17.8 61 5.0 SW 13 19 7 10 1014.0 1013.5 0.0
15/04:00pm 25.4 25.9 17.4 61 5.0 SSW 11 15 6 8 1013.9 1013.4 0.0
15/03:30pm 26.9 28.8 17.6 56 5.9 SW 4 11 2 6 1014.1 1013.6 0.0
15/03:00pm 26.2 26.1 16.9 56 5.8 SW 13 17 7 9 1014.3 1013.8 0.0
15/02:30pm 26.1 26.3 17.7 60 5.3 SW 13 22 7 12 1014.3 1013.8 0.0
15/02:00pm 25.7 25.1 16.7 57 5.6 SSW 15 24 8 13 1014.5 1014.0 0.0
15/01:30pm 26.2 25.8 17.1 57 5.7 SW 15 20 8 11 1014.6 1014.1 0.0
15/01:00pm 25.9 25.8 16.9 57 5.6 WSW 13 19 7 10 1014.8 1014.3 0.0
15/12:30pm 26.1 25.3 16.2 54 6.1 WSW 15 20 8 11 1014.7 1014.2 0.0
15/12:00pm 25.6 25.8 17.7 61 5.0 W 13 20 7 11 1015.0 1014.5 0.0
15/11:30am 25.2 25.0 17.7 63 4.7 W 15 20 8 11 1015.1 1014.6 0.0
15/11:00am 24.7 25.1 18.9 70 3.7 W 15 20 8 11 1015.1 1014.6 0.0
15/10:30am 24.1 23.8 19.1 73 3.2 W 19 24 10 13 1014.9 1014.4 0.0
15/10:00am 24.7 25.1 18.2 67 4.1 WNW 13 19 7 10 1014.6 1014.1 0.0
15/09:30am 24.5 25.0 18.3 68 3.9 WNW 13 19 7 10 1014.4 1013.9 0.0
15/09:00am 24.2 24.4 17.7 67 4.1 WNW 13 19 7 10 1014.4 1013.9 0.0
15/08:30am 23.8 24.1 17.9 69 3.7 WNW 13 17 7 9 1014.3 1013.8 0.0
15/08:00am 23.7 24.2 18.3 71 3.4 WNW 13 19 7 10 1014.4 1013.9 0.0
15/07:39am 23.5 24.9 19.5 78 2.6 WNW 11 19 6 10 1014.5 1014.0 0.0
15/07:30am 23.6 25.3 19.4 77 2.7 NW 9 15 5 8 1014.4 1013.9 0.0
15/07:00am 22.9 24.1 19.0 78 2.5 N 11 19 6 10 1014.4 1013.9 0.0
15/06:42am 22.7 23.6 19.3 81 2.2 NNE 13 17 7 9 1014.3 1013.8 0.0
15/06:30am 22.3 23.6 19.2 82 2.0 NNE 11 19 6 10 1014.3 1013.8 0.0
15/06:00am 21.7 24.4 19.5 87 1.4 N 4 7 2 4 1014.1 1013.6 0.0
15/05:30am 21.1 23.7 19.2 89 1.2 NW 4 9 2 5 1013.9 1013.4 0.0
15/05:17am 21.2 23.2 19.2 88 1.3 N 7 13 4 7 1013.8 1013.3 0.0
15/05:00am 21.3 22.9 19.1 87 1.4 N 9 13 5 7 1013.5 1013.1 0.0
15/04:47am 21.5 23.5 19.1 86 1.5 N 7 15 4 8 1013.4 1013.0 0.0
15/04:30am 21.4 23.0 19.2 87 1.4 N 9 13 5 7 1013.3 1012.9 0.0
15/04:00am 21.3 23.3 19.1 87 1.4 N 7 15 4 8 1013.1 1012.7 0.0
15/03:30am 21.5 23.1 19.1 86 1.5 N 9 13 5 7 1013.1 1012.7 0.0
15/03:00am 21.6 22.8 19.1 86 1.6 N 11 17 6 9 1013.0 1012.6 0.0
15/02:30am 21.8 23.2 19.6 87 1.4 N 11 15 6 8 1013.1 1012.7 0.0
15/02:00am 21.7 23.0 19.3 86 1.5 N 11 17 6 9 1013.2 1012.8 0.0
15/01:53am 21.5 23.2 19.3 87 1.4 N 9 17 5 9 1013.2 1012.8 0.0
15/01:30am 21.8 23.6 19.6 87 1.4 N 9 15 5 8 1013.2 1012.8 0.0
15/01:24am 21.8 23.7 19.8 88 1.3 NNE 9 17 5 9 1013.2 1012.8 0.0
15/01:00am 21.7 23.2 19.7 88 1.3 NNE 11 15 6 8 1013.5 1013.1 0.0
15/12:30am 22.1 23.8 19.4 85 1.7 N 9 15 5 8 1014.0 1013.5 0.0
15/12:00am 21.9 23.8 19.7 87 1.4 NNE 9 13 5 7 1014.3 1013.8 0.0
 
Date/Time
EDT
Temp
°C
App
Temp
°C
Dew
Point
°C
Rel
Hum
%
Delta-T
°C
Wind Press
QNH
hPa
Press
MSL
hPa
Rain since
9am
mm
Dir  Spd
km/h
Gust
km/h
Spd
kts
Gust
kts
14/11:30pm 22.1 23.4 19.4 85 1.7 NNE 11 15 6 8 1014.5 1014.0 0.0
14/11:00pm 22.2 23.6 19.5 85 1.7 NNE 11 17 6 9 1014.6 1014.1 0.0
14/10:30pm 22.1 23.5 19.6 86 1.6 NNE 11 17 6 9 1014.6 1014.1 0.0
14/10:00pm 22.1 23.5 19.6 86 1.6 NNE 11 17 6 9 1014.3 1013.8 0.0
14/09:40pm 22.3 23.3 19.5 84 1.8 NNE 13 24 7 13 1014.3 1013.8 0.0
14/09:30pm 22.4 24.0 19.9 86 1.6 NNE 11 15 6 8 1014.2 1013.7 0.0
14/09:00pm 22.2 24.6 20.0 87 1.4 NE 7 11 4 6 1014.1 1013.6 0.0
14/08:39pm 22.0 24.3 19.8 87 1.4 NE 7 11 4 6 1013.9 1013.4 0.0
14/08:30pm 22.0 24.2 19.7 87 1.5 NE 7 9 4 5 1014.0 1013.5 0.0
14/08:00pm 21.6 23.4 19.6 88 1.3 NE 9 11 5 6 1014.0 1013.5 0.0
14/07:30pm 21.7 23.9 19.5 87 1.4 ENE 7 11 4 6 1013.9 1013.4 0.0
14/07:00pm 22.4 24.2 19.6 84 1.8 NE 9 13 5 7 1013.5 1013.1 0.0
14/06:30pm 22.8 23.4 19.4 81 2.2 NE 15 22 8 12 1013.3 1012.9 0.0
14/06:01pm 22.9 23.8 19.3 80 2.3 NE 13 17 7 9 1013.0 1012.6 0.0
14/06:00pm 22.9 23.8 19.3 80 2.3 ENE 13 17 7 9 1013.0 1012.6 0.0
14/05:45pm 23.2 24.2 19.5 80 2.4 ENE 13 19 7 10 1012.9 1012.5 0.0
14/05:30pm 23.8 24.4 19.4 76 2.8 ENE 15 24 8 13 1012.8 1012.4 0.0
14/05:00pm 23.8 24.0 19.3 76 2.9 ENE 17 20 9 11 1012.8 1012.4 0.0
14/04:30pm 23.7 24.2 19.3 76 2.8 ENE 15 19 8 10 1012.8 1012.4 0.0
14/04:00pm 23.9 23.9 18.9 73 3.2 NE 17 24 9 13 1012.9 1012.5 0.0
14/03:30pm 24.6 23.8 18.1 67 4.1 NE 19 24 10 13 1012.8 1012.4 0.0
14/03:00pm 24.5 24.8 19.5 73 3.2 NE 17 24 9 13 1012.9 1012.5 0.0
14/02:30pm 25.8 25.7 19.6 68 4.0 NE 19 26 10 14 1013.1 1012.7 0.0
14/02:00pm 24.8 24.7 18.7 69 3.9 ENE 17 24 9 13 1013.3 1012.9 0.0
14/01:30pm 24.8 24.3 19.0 70 3.7 ENE 20 26 11 14 1013.7 1013.2 0.0
14/01:00pm 24.6 24.3 19.1 71 3.5 NE 19 26 10 14 1013.9 1013.4 0.0
14/12:30pm 24.3 24.2 19.5 74 3.1 NE 19 26 10 14 1013.9 1013.4 0.0
14/12:00pm 25.0 25.0 20.1 74 3.2 NE 20 30 11 16 1014.0 1013.5 0.0
14/11:30am 25.2 24.9 19.5 70 3.7 ENE 20 28 11 15 1014.1 1013.6 0.0
14/11:00am 25.5 25.4 19.6 70 3.8 ENE 19 26 10 14 1014.2 1013.7 0.0
14/10:30am 24.8 24.8 18.9 69 3.8 NE 17 28 9 15 1014.3 1013.8 0.0
14/10:00am 25.3 25.7 19.1 68 4.0 ENE 15 22 8 12 1014.2 1013.7 0.0
14/09:30am 25.2 26.2 19.5 70 3.7 NE 13 19 7 10 1014.2 1013.7 0.0
14/09:00am 25.3 25.7 18.9 67 4.1 ENE 15 24 8 13 1014.2 1013.7 0.0
14/08:30am 24.7 25.7 19.4 72 3.4 NE 13 24 7 13 1014.3 1013.8 0.0
14/08:00am 24.3 25.8 19.7 75 3.0 NNE 11 19 6 10 1014.3 1013.8 0.0
14/07:30am 23.6 24.4 19.1 76 2.9 NE 13 19 7 10 1014.4 1013.9 0.0
14/07:00am 22.5 25.0 20.2 87 1.5 ENE 7 11 4 6 1014.5 1014.0 0.0
14/06:30am 22.3 24.4 20.1 87 1.4 NE 9 13 5 7 1014.3 1013.8 0.0
14/06:02am 21.4 24.1 20.3 93 0.7 NE 6 9 3 5 1014.0 1013.5 0.0
14/06:00am 21.3 24.4 20.2 93 0.7 NE 4 9 2 5 1014.0 1013.5 0.0
14/05:46am 21.3 25.1 20.2 93 0.7 CALM 0 0 0 0 1013.7 1013.2 0.0
14/05:30am 20.9 23.4 19.8 93 0.7 NE 6 7 3 4 1013.4 1013.0 0.0
14/05:00am 20.3 23.8 19.5 95 0.5 CALM 0 6 0 3 1013.2 1012.8 0.0
14/04:30am 20.0 23.0 19.2 95 0.5 NE 2 9 1 5 1013.0 1012.6 0.0
14/04:00am 20.2 23.2 19.3 95 0.6 NE 2 9 1 5 1013.2 1012.8 0.0
14/03:50am 20.4 23.8 19.3 93 0.7 CALM 0 0 0 0 1013.4 1013.0 0.0
14/03:39am 20.5 23.9 19.4 93 0.7 CALM 0 0 0 0 1013.5 1013.1 0.0
14/03:30am 20.5 23.9 19.4 93 0.7 CALM 0 0 0 0 1013.5 1013.1 0.0
14/03:24am 20.7 24.2 19.6 93 0.7 CALM 0 0 0 0 1013.5 1013.1 0.0
14/03:00am 20.5 23.9 19.4 93 0.7 CALM 0 0 0 0 1013.5 1013.1 0.0
14/02:35am 21.0 24.6 19.8 93 0.8 CALM 0 0 0 0 1013.3 1012.9 0.0
14/02:30am 21.0 24.1 19.6 92 0.9 NE 2 9 1 5 1013.3 1012.9 0.0
14/02:17am 21.4 23.3 19.8 91 1.0 NE 9 11 5 6 1013.2 1012.8 0.0
14/02:00am 21.4 23.3 19.8 91 1.0 NE 9 13 5 7 1013.1 1012.7 0.0
14/01:30am 21.3 22.8 19.7 91 1.0 NE 11 15 6 8 1013.0 1012.6 0.0
14/01:08am 21.1 22.9 19.5 90 1.0 NE 9 13 5 7 1013.3 1012.9 0.0
14/01:00am 21.3 23.1 19.6 90 1.1 NE 9 13 5 7 1013.3 1012.9 0.0
14/12:55am 21.2 22.6 19.6 90 1.0 NE 11 13 6 7 1013.4 1013.0 0.0
14/12:30am 21.0 23.8 19.6 92 0.9 ENE 4 7 2 4 1013.9 1013.4 0.0
14/12:01am 20.8 22.9 19.4 92 0.9 ENE 7 11 4 6 1014.0 1013.5 0.0
14/12:00am 20.8 22.8 19.2 90 1.0 ENE 7 11 4 6 1014.1 1013.6 0.0
 
Date/Time
EDT
Temp
°C
App
Temp
°C
Dew
Point
°C
Rel
Hum
%
Delta-T
°C
Wind Press
QNH
hPa
Press
MSL
hPa
Rain since
9am
mm
Dir  Spd
km/h
Gust
km/h
Spd
kts
Gust
kts
13/11:30pm 21.0 22.7 19.4 90 1.0 ENE 9 13 5 7 1014.1 1013.6 0.0

Other Formats:

Comma delimited format used in spreadsheet applications
http://www.bom.gov.au/fwo/IDN60801/IDN60801.94996.axf

JavaScript Object Notation format (JSON) in row-major order
http://www.bom.gov.au/fwo/IDN60801/IDN60801.94996.json